sensor_id;sensor_type;location;lat;lon;timestamp;P1;durP1;ratioP1;P2;durP2;ratioP2
34573;SDS011;20809;49.594;8.734;2022-07-22T00:02:23;8.88;;;6.57;;
34573;SDS011;20809;49.594;8.734;2022-07-22T00:05:23;7.38;;;6.30;;
34573;SDS011;20809;49.594;8.734;2022-07-22T00:08:24;9.48;;;6.78;;
34573;SDS011;20809;49.594;8.734;2022-07-22T00:11:25;6.80;;;6.18;;
34573;SDS011;20809;49.594;8.734;2022-07-22T00:14:25;9.90;;;6.95;;
34573;SDS011;20809;49.594;8.734;2022-07-22T00:17:26;7.55;;;6.65;;
34573;SDS011;20809;49.594;8.734;2022-07-22T00:20:27;8.43;;;6.27;;
34573;SDS011;20809;49.594;8.734;2022-07-22T00:23:28;9.32;;;7.50;;
34573;SDS011;20809;49.594;8.734;2022-07-22T00:26:28;7.93;;;6.13;;
34573;SDS011;20809;49.594;8.734;2022-07-22T00:29:29;8.13;;;7.32;;
34573;SDS011;20809;49.594;8.734;2022-07-22T00:32:30;8.52;;;7.13;;
34573;SDS011;20809;49.594;8.734;2022-07-22T00:35:31;7.85;;;6.68;;
34573;SDS011;20809;49.594;8.734;2022-07-22T00:38:32;7.55;;;6.78;;
34573;SDS011;20809;49.594;8.734;2022-07-22T00:41:32;7.85;;;6.43;;
34573;SDS011;20809;49.594;8.734;2022-07-22T00:44:33;9.30;;;7.45;;
34573;SDS011;20809;49.594;8.734;2022-07-22T00:47:34;8.90;;;7.32;;
34573;SDS011;20809;49.594;8.734;2022-07-22T00:50:34;9.32;;;7.70;;
34573;SDS011;20809;49.594;8.734;2022-07-22T00:53:35;8.80;;;7.40;;
34573;SDS011;20809;49.594;8.734;2022-07-22T00:59:08;8.68;;;7.85;;
34573;SDS011;20809;49.594;8.734;2022-07-22T01:02:11;7.82;;;6.40;;
34573;SDS011;20809;49.594;8.734;2022-07-22T01:05:12;10.88;;;7.07;;
34573;SDS011;20809;49.594;8.734;2022-07-22T01:08:13;8.13;;;6.88;;
34573;SDS011;20809;49.594;8.734;2022-07-22T01:11:14;8.63;;;7.25;;
34573;SDS011;20809;49.594;8.734;2022-07-22T01:14:19;8.70;;;7.72;;
34573;SDS011;20809;49.594;8.734;2022-07-22T01:17:20;8.05;;;7.25;;
34573;SDS011;20809;49.594;8.734;2022-07-22T01:27:51;11.20;;;7.50;;
34573;SDS011;20809;49.594;8.734;2022-07-22T01:31:11;7.78;;;6.55;;
34573;SDS011;20809;49.594;8.734;2022-07-22T01:34:12;9.00;;;7.65;;
34573;SDS011;20809;49.594;8.734;2022-07-22T01:37:13;10.00;;;7.47;;
34573;SDS011;20809;49.594;8.734;2022-07-22T01:40:14;8.80;;;7.68;;
34573;SDS011;20809;49.594;8.734;2022-07-22T01:43:14;8.68;;;7.53;;
34573;SDS011;20809;49.594;8.734;2022-07-22T01:46:17;9.45;;;8.00;;
34573;SDS011;20809;49.594;8.734;2022-07-22T01:49:18;13.52;;;8.55;;
34573;SDS011;20809;49.594;8.734;2022-07-22T01:52:19;9.00;;;7.60;;
34573;SDS011;20809;49.594;8.734;2022-07-22T01:55:20;9.52;;;8.13;;
34573;SDS011;20809;49.594;8.734;2022-07-22T01:58:21;7.85;;;7.07;;
34573;SDS011;20809;49.594;8.734;2022-07-22T02:01:21;8.02;;;7.10;;
34573;SDS011;20809;49.594;8.734;2022-07-22T02:04:24;9.45;;;7.90;;
34573;SDS011;20809;49.594;8.734;2022-07-22T02:07:25;10.27;;;7.68;;
34573;SDS011;20809;49.594;8.734;2022-07-22T02:10:26;8.75;;;7.60;;
34573;SDS011;20809;49.594;8.734;2022-07-22T02:13:27;8.75;;;7.85;;
34573;SDS011;20809;49.594;8.734;2022-07-22T02:16:28;11.52;;;7.97;;
34573;SDS011;20809;49.594;8.734;2022-07-22T02:19:29;8.05;;;7.25;;
34573;SDS011;20809;49.594;8.734;2022-07-22T02:22:29;10.98;;;7.47;;
34573;SDS011;20809;49.594;8.734;2022-07-22T02:25:30;9.07;;;8.15;;
34573;SDS011;20809;49.594;8.734;2022-07-22T02:28:31;10.75;;;7.78;;
34573;SDS011;20809;49.594;8.734;2022-07-22T02:31:31;8.20;;;7.37;;
34573;SDS011;20809;49.594;8.734;2022-07-22T02:34:32;9.75;;;7.25;;
34573;SDS011;20809;49.594;8.734;2022-07-22T02:37:33;10.27;;;8.10;;
34573;SDS011;20809;49.594;8.734;2022-07-22T02:40:34;9.30;;;7.38;;
34573;SDS011;20809;49.594;8.734;2022-07-22T02:43:34;10.02;;;7.80;;
34573;SDS011;20809;49.594;8.734;2022-07-22T02:46:35;10.90;;;8.13;;
34573;SDS011;20809;49.594;8.734;2022-07-22T02:49:36;10.77;;;7.90;;
34573;SDS011;20809;49.594;8.734;2022-07-22T02:52:37;12.50;;;8.10;;
34573;SDS011;20809;49.594;8.734;2022-07-22T02:55:37;9.30;;;8.20;;
34573;SDS011;20809;49.594;8.734;2022-07-22T02:58:38;9.13;;;8.03;;
34573;SDS011;20809;49.594;8.734;2022-07-22T03:01:39;10.13;;;7.90;;
34573;SDS011;20809;49.594;8.734;2022-07-22T03:04:40;12.07;;;8.63;;
34573;SDS011;20809;49.594;8.734;2022-07-22T03:07:40;10.87;;;8.67;;
34573;SDS011;20809;49.594;8.734;2022-07-22T03:10:41;10.40;;;8.52;;
34573;SDS011;20809;49.594;8.734;2022-07-22T03:13:42;10.13;;;7.40;;
34573;SDS011;20809;49.594;8.734;2022-07-22T03:16:43;13.50;;;9.05;;
34573;SDS011;20809;49.594;8.734;2022-07-22T03:19:44;9.93;;;8.70;;
34573;SDS011;20809;49.594;8.734;2022-07-22T03:22:44;11.43;;;9.23;;
34573;SDS011;20809;49.594;8.734;2022-07-22T03:25:45;13.20;;;9.65;;
34573;SDS011;20809;49.594;8.734;2022-07-22T03:28:46;12.43;;;8.85;;
34573;SDS011;20809;49.594;8.734;2022-07-22T03:31:47;10.43;;;8.48;;
34573;SDS011;20809;49.594;8.734;2022-07-22T03:34:51;10.57;;;8.50;;
34573;SDS011;20809;49.594;8.734;2022-07-22T03:37:52;8.48;;;7.22;;
34573;SDS011;20809;49.594;8.734;2022-07-22T03:40:58;8.25;;;7.45;;
34573;SDS011;20809;49.594;8.734;2022-07-22T03:43:59;8.52;;;7.63;;
34573;SDS011;20809;49.594;8.734;2022-07-22T03:47:02;10.52;;;8.25;;
34573;SDS011;20809;49.594;8.734;2022-07-22T03:54:04;11.90;;;7.88;;
34573;SDS011;20809;49.594;8.734;2022-07-22T04:00:06;9.27;;;7.47;;
34573;SDS011;20809;49.594;8.734;2022-07-22T04:03:07;9.40;;;8.27;;
34573;SDS011;20809;49.594;8.734;2022-07-22T04:06:08;10.03;;;8.47;;
34573;SDS011;20809;49.594;8.734;2022-07-22T04:09:08;11.05;;;8.50;;
34573;SDS011;20809;49.594;8.734;2022-07-22T04:12:09;9.77;;;8.02;;
34573;SDS011;20809;49.594;8.734;2022-07-22T04:15:12;10.90;;;8.30;;
34573;SDS011;20809;49.594;8.734;2022-07-22T04:18:12;9.00;;;7.40;;
34573;SDS011;20809;49.594;8.734;2022-07-22T04:21:15;9.15;;;7.68;;
34573;SDS011;20809;49.594;8.734;2022-07-22T04:24:16;8.98;;;7.93;;
34573;SDS011;20809;49.594;8.734;2022-07-22T04:27:16;9.02;;;7.78;;
34573;SDS011;20809;49.594;8.734;2022-07-22T04:30:17;10.32;;;7.70;;
34573;SDS011;20809;49.594;8.734;2022-07-22T04:33:18;8.38;;;7.47;;
34573;SDS011;20809;49.594;8.734;2022-07-22T04:36:19;8.98;;;7.50;;
34573;SDS011;20809;49.594;8.734;2022-07-22T04:39:19;13.02;;;8.70;;
34573;SDS011;20809;49.594;8.734;2022-07-22T04:42:20;7.93;;;6.70;;
34573;SDS011;20809;49.594;8.734;2022-07-22T04:45:21;10.07;;;6.93;;
34573;SDS011;20809;49.594;8.734;2022-07-22T04:48:22;6.75;;;6.07;;
34573;SDS011;20809;49.594;8.734;2022-07-22T04:51:22;8.03;;;6.83;;
34573;SDS011;20809;49.594;8.734;2022-07-22T04:54:24;7.70;;;6.63;;
34573;SDS011;20809;49.594;8.734;2022-07-22T04:57:25;8.98;;;6.53;;
34573;SDS011;20809;49.594;8.734;2022-07-22T05:00:26;7.65;;;6.85;;
34573;SDS011;20809;49.594;8.734;2022-07-22T05:03:26;7.47;;;6.75;;
34573;SDS011;20809;49.594;8.734;2022-07-22T05:06:27;9.68;;;6.50;;
34573;SDS011;20809;49.594;8.734;2022-07-22T05:09:28;7.25;;;6.10;;
34573;SDS011;20809;49.594;8.734;2022-07-22T05:12:29;7.93;;;7.13;;
34573;SDS011;20809;49.594;8.734;2022-07-22T05:15:29;10.45;;;7.38;;
34573;SDS011;20809;49.594;8.734;2022-07-22T05:18:30;9.05;;;6.97;;
34573;SDS011;20809;49.594;8.734;2022-07-22T05:21:31;10.60;;;7.45;;
34573;SDS011;20809;49.594;8.734;2022-07-22T05:24:32;7.40;;;6.45;;
34573;SDS011;20809;49.594;8.734;2022-07-22T05:27:33;10.20;;;6.32;;
34573;SDS011;20809;49.594;8.734;2022-07-22T05:30:34;9.65;;;6.88;;
34573;SDS011;20809;49.594;8.734;2022-07-22T05:33:35;7.50;;;6.47;;
34573;SDS011;20809;49.594;8.734;2022-07-22T05:36:35;8.85;;;6.85;;
34573;SDS011;20809;49.594;8.734;2022-07-22T05:39:37;13.00;;;6.90;;
34573;SDS011;20809;49.594;8.734;2022-07-22T05:42:37;9.70;;;6.38;;
34573;SDS011;20809;49.594;8.734;2022-07-22T05:45:38;6.70;;;5.85;;
34573;SDS011;20809;49.594;8.734;2022-07-22T05:48:39;7.57;;;5.63;;
34573;SDS011;20809;49.594;8.734;2022-07-22T05:51:40;8.15;;;5.80;;
34573;SDS011;20809;49.594;8.734;2022-07-22T05:54:40;5.53;;;4.85;;
34573;SDS011;20809;49.594;8.734;2022-07-22T05:57:41;6.10;;;4.90;;
34573;SDS011;20809;49.594;8.734;2022-07-22T06:00:42;5.65;;;5.13;;
34573;SDS011;20809;49.594;8.734;2022-07-22T06:03:43;5.45;;;4.22;;
34573;SDS011;20809;49.594;8.734;2022-07-22T06:06:43;4.47;;;4.05;;
34573;SDS011;20809;49.594;8.734;2022-07-22T06:09:44;4.78;;;3.95;;
34573;SDS011;20809;49.594;8.734;2022-07-22T06:12:45;8.52;;;7.43;;
34573;SDS011;20809;49.594;8.734;2022-07-22T06:15:46;6.72;;;4.07;;
34573;SDS011;20809;49.594;8.734;2022-07-22T06:18:46;5.07;;;4.60;;
34573;SDS011;20809;49.594;8.734;2022-07-22T06:21:47;5.07;;;4.57;;
34573;SDS011;20809;49.594;8.734;2022-07-22T06:24:48;7.43;;;5.00;;
34573;SDS011;20809;49.594;8.734;2022-07-22T06:27:49;6.38;;;4.78;;
34573;SDS011;20809;49.594;8.734;2022-07-22T06:30:49;5.25;;;4.13;;
34573;SDS011;20809;49.594;8.734;2022-07-22T06:33:50;4.82;;;4.22;;
34573;SDS011;20809;49.594;8.734;2022-07-22T06:36:51;5.85;;;4.43;;
34573;SDS011;20809;49.594;8.734;2022-07-22T06:39:51;4.75;;;4.35;;
34573;SDS011;20809;49.594;8.734;2022-07-22T06:42:52;4.55;;;4.05;;
34573;SDS011;20809;49.594;8.734;2022-07-22T06:45:53;7.97;;;4.30;;
34573;SDS011;20809;49.594;8.734;2022-07-22T06:48:54;5.30;;;3.80;;
34573;SDS011;20809;49.594;8.734;2022-07-22T06:51:54;7.43;;;4.50;;
34573;SDS011;20809;49.594;8.734;2022-07-22T06:54:55;4.18;;;3.72;;
34573;SDS011;20809;49.594;8.734;2022-07-22T06:57:56;4.38;;;3.65;;
34573;SDS011;20809;49.594;8.734;2022-07-22T07:00:56;3.25;;;3.00;;
34573;SDS011;20809;49.594;8.734;2022-07-22T07:03:57;4.75;;;4.18;;
34573;SDS011;20809;49.594;8.734;2022-07-22T07:06:58;5.82;;;3.72;;
34573;SDS011;20809;49.594;8.734;2022-07-22T07:09:59;7.07;;;4.88;;
34573;SDS011;20809;49.594;8.734;2022-07-22T07:13:00;4.55;;;4.10;;
34573;SDS011;20809;49.594;8.734;2022-07-22T07:16:00;3.55;;;3.22;;
34573;SDS011;20809;49.594;8.734;2022-07-22T07:19:01;4.82;;;3.63;;
34573;SDS011;20809;49.594;8.734;2022-07-22T07:22:02;4.47;;;3.90;;
34573;SDS011;20809;49.594;8.734;2022-07-22T07:25:03;5.35;;;3.83;;
34573;SDS011;20809;49.594;8.734;2022-07-22T07:28:05;5.45;;;3.88;;
34573;SDS011;20809;49.594;8.734;2022-07-22T07:31:06;5.22;;;4.00;;
34573;SDS011;20809;49.594;8.734;2022-07-22T07:34:07;5.28;;;3.75;;
34573;SDS011;20809;49.594;8.734;2022-07-22T07:37:08;4.93;;;4.53;;
34573;SDS011;20809;49.594;8.734;2022-07-22T07:40:09;4.10;;;3.70;;
34573;SDS011;20809;49.594;8.734;2022-07-22T07:43:10;4.05;;;3.75;;
34573;SDS011;20809;49.594;8.734;2022-07-22T07:46:11;3.97;;;3.38;;
34573;SDS011;20809;49.594;8.734;2022-07-22T07:49:12;3.58;;;3.28;;
34573;SDS011;20809;49.594;8.734;2022-07-22T07:52:13;4.20;;;3.72;;
34573;SDS011;20809;49.594;8.734;2022-07-22T07:55:14;4.28;;;3.72;;
34573;SDS011;20809;49.594;8.734;2022-07-22T07:58:15;4.15;;;3.72;;
34573;SDS011;20809;49.594;8.734;2022-07-22T08:01:16;3.97;;;3.53;;
34573;SDS011;20809;49.594;8.734;2022-07-22T08:04:17;3.95;;;3.22;;
34573;SDS011;20809;49.594;8.734;2022-07-22T08:07:18;3.45;;;3.15;;
34573;SDS011;20809;49.594;8.734;2022-07-22T08:10:19;3.70;;;3.40;;
34573;SDS011;20809;49.594;8.734;2022-07-22T08:13:20;4.00;;;3.70;;
34573;SDS011;20809;49.594;8.734;2022-07-22T08:16:21;3.72;;;3.40;;
34573;SDS011;20809;49.594;8.734;2022-07-22T08:22:22;4.13;;;3.70;;
34573;SDS011;20809;49.594;8.734;2022-07-22T08:28:24;4.10;;;3.47;;
34573;SDS011;20809;49.594;8.734;2022-07-22T08:34:27;5.70;;;3.80;;
34573;SDS011;20809;49.594;8.734;2022-07-22T08:40:28;4.50;;;3.77;;
34573;SDS011;20809;49.594;8.734;2022-07-22T08:46:31;4.10;;;3.80;;
34573;SDS011;20809;49.594;8.734;2022-07-22T08:49:32;4.25;;;3.92;;
34573;SDS011;20809;49.594;8.734;2022-07-22T08:55:39;3.78;;;3.47;;
34573;SDS011;20809;49.594;8.734;2022-07-22T08:58:43;3.92;;;3.63;;
34573;SDS011;20809;49.594;8.734;2022-07-22T09:02:00;3.92;;;3.63;;
34573;SDS011;20809;49.594;8.734;2022-07-22T09:05:03;4.40;;;4.00;;
34573;SDS011;20809;49.594;8.734;2022-07-22T09:08:06;3.75;;;3.40;;
34573;SDS011;20809;49.594;8.734;2022-07-22T09:11:16;5.22;;;3.67;;
34573;SDS011;20809;49.594;8.734;2022-07-22T09:14:17;3.13;;;2.92;;
34573;SDS011;20809;49.594;8.734;2022-07-22T09:20:36;4.68;;;4.00;;
34573;SDS011;20809;49.594;8.734;2022-07-22T09:23:43;4.30;;;4.00;;
34573;SDS011;20809;49.594;8.734;2022-07-22T09:26:44;3.83;;;3.63;;
34573;SDS011;20809;49.594;8.734;2022-07-22T09:29:54;4.30;;;3.88;;
34573;SDS011;20809;49.594;8.734;2022-07-22T09:32:56;4.55;;;4.15;;
34573;SDS011;20809;49.594;8.734;2022-07-22T09:36:03;4.57;;;4.20;;
34573;SDS011;20809;49.594;8.734;2022-07-22T09:39:23;4.10;;;3.80;;
34573;SDS011;20809;49.594;8.734;2022-07-22T09:42:43;3.80;;;3.50;;
34573;SDS011;20809;49.594;8.734;2022-07-22T09:45:49;4.22;;;3.88;;
34573;SDS011;20809;49.594;8.734;2022-07-22T09:48:51;4.32;;;4.03;;
34573;SDS011;20809;49.594;8.734;2022-07-22T09:51:52;6.07;;;5.57;;
34573;SDS011;20809;49.594;8.734;2022-07-22T09:54:53;4.95;;;4.43;;
34573;SDS011;20809;49.594;8.734;2022-07-22T09:57:54;4.28;;;3.88;;
34573;SDS011;20809;49.594;8.734;2022-07-22T10:00:58;5.40;;;4.90;;
34573;SDS011;20809;49.594;8.734;2022-07-22T10:04:02;5.40;;;5.00;;
34573;SDS011;20809;49.594;8.734;2022-07-22T10:07:05;5.18;;;4.72;;
34573;SDS011;20809;49.594;8.734;2022-07-22T10:10:07;5.57;;;4.65;;
34573;SDS011;20809;49.594;8.734;2022-07-22T10:13:10;7.28;;;5.22;;
34573;SDS011;20809;49.594;8.734;2022-07-22T10:19:12;5.80;;;4.30;;
34573;SDS011;20809;49.594;8.734;2022-07-22T10:25:52;5.78;;;4.63;;
34573;SDS011;20809;49.594;8.734;2022-07-22T10:28:55;5.22;;;4.80;;
34573;SDS011;20809;49.594;8.734;2022-07-22T10:32:25;7.47;;;4.53;;
34573;SDS011;20809;49.594;8.734;2022-07-22T10:35:27;5.38;;;4.93;;
34573;SDS011;20809;49.594;8.734;2022-07-22T10:38:29;4.68;;;4.07;;
34573;SDS011;20809;49.594;8.734;2022-07-22T10:41:38;4.85;;;4.32;;
34573;SDS011;20809;49.594;8.734;2022-07-22T10:44:47;5.60;;;4.68;;
34573;SDS011;20809;49.594;8.734;2022-07-22T10:50:55;8.45;;;5.93;;
34573;SDS011;20809;49.594;8.734;2022-07-22T10:54:09;6.80;;;5.72;;
34573;SDS011;20809;49.594;8.734;2022-07-22T11:00:10;6.07;;;4.63;;
34573;SDS011;20809;49.594;8.734;2022-07-22T11:06:13;5.43;;;4.97;;
34573;SDS011;20809;49.594;8.734;2022-07-22T11:09:14;5.57;;;5.07;;
34573;SDS011;20809;49.594;8.734;2022-07-22T11:12:17;5.70;;;5.20;;
34573;SDS011;20809;49.594;8.734;2022-07-22T11:18:24;5.10;;;4.70;;
34573;SDS011;20809;49.594;8.734;2022-07-22T11:27:28;6.72;;;4.82;;
34573;SDS011;20809;49.594;8.734;2022-07-22T11:33:29;4.73;;;4.40;;
34573;SDS011;20809;49.594;8.734;2022-07-22T11:39:33;5.60;;;5.10;;
34573;SDS011;20809;49.594;8.734;2022-07-22T11:42:34;5.65;;;4.63;;
34573;SDS011;20809;49.594;8.734;2022-07-22T11:48:35;4.85;;;4.45;;
34573;SDS011;20809;49.594;8.734;2022-07-22T11:51:37;6.22;;;4.10;;
34573;SDS011;20809;49.594;8.734;2022-07-22T11:54:38;6.93;;;5.07;;
34573;SDS011;20809;49.594;8.734;2022-07-22T11:57:47;4.72;;;4.28;;
34573;SDS011;20809;49.594;8.734;2022-07-22T12:00:48;5.40;;;4.80;;
34573;SDS011;20809;49.594;8.734;2022-07-22T12:03:56;5.03;;;4.53;;
34573;SDS011;20809;49.594;8.734;2022-07-22T12:06:59;5.28;;;4.88;;
34573;SDS011;20809;49.594;8.734;2022-07-22T12:13:27;5.13;;;4.68;;
34573;SDS011;20809;49.594;8.734;2022-07-22T12:16:30;5.15;;;4.75;;
34573;SDS011;20809;49.594;8.734;2022-07-22T12:19:32;5.25;;;4.78;;
34573;SDS011;20809;49.594;8.734;2022-07-22T12:22:34;5.10;;;4.70;;
34573;SDS011;20809;49.594;8.734;2022-07-22T12:25:51;5.88;;;5.00;;
34573;SDS011;20809;49.594;8.734;2022-07-22T12:29:11;5.10;;;4.68;;
34573;SDS011;20809;49.594;8.734;2022-07-22T12:32:17;5.07;;;4.68;;
34573;SDS011;20809;49.594;8.734;2022-07-22T12:35:24;5.70;;;5.20;;
34573;SDS011;20809;49.594;8.734;2022-07-22T12:38:26;5.93;;;5.30;;
34573;SDS011;20809;49.594;8.734;2022-07-22T12:41:27;6.43;;;5.32;;
34573;SDS011;20809;49.594;8.734;2022-07-22T12:44:30;5.95;;;5.32;;
34573;SDS011;20809;49.594;8.734;2022-07-22T12:48:06;5.15;;;4.75;;
34573;SDS011;20809;49.594;8.734;2022-07-22T12:51:01;5.93;;;5.43;;
34573;SDS011;20809;49.594;8.734;2022-07-22T12:54:02;5.07;;;4.72;;
34573;SDS011;20809;49.594;8.734;2022-07-22T12:57:03;5.05;;;4.65;;
34573;SDS011;20809;49.594;8.734;2022-07-22T13:00:04;6.00;;;5.40;;
34573;SDS011;20809;49.594;8.734;2022-07-22T13:03:06;5.70;;;5.20;;
34573;SDS011;20809;49.594;8.734;2022-07-22T13:06:07;5.05;;;4.70;;
34573;SDS011;20809;49.594;8.734;2022-07-22T13:09:10;5.60;;;5.20;;
34573;SDS011;20809;49.594;8.734;2022-07-22T13:12:11;6.13;;;5.50;;
34573;SDS011;20809;49.594;8.734;2022-07-22T13:15:12;6.22;;;5.45;;
34573;SDS011;20809;49.594;8.734;2022-07-22T13:18:13;6.47;;;5.30;;
34573;SDS011;20809;49.594;8.734;2022-07-22T13:21:15;5.38;;;5.03;;
34573;SDS011;20809;49.594;8.734;2022-07-22T13:24:16;10.23;;;5.10;;
34573;SDS011;20809;49.594;8.734;2022-07-22T13:27:17;5.35;;;4.75;;
34573;SDS011;20809;49.594;8.734;2022-07-22T13:30:17;4.90;;;4.60;;
34573;SDS011;20809;49.594;8.734;2022-07-22T13:33:18;5.82;;;5.03;;
34573;SDS011;20809;49.594;8.734;2022-07-22T13:36:19;5.93;;;5.32;;
34573;SDS011;20809;49.594;8.734;2022-07-22T13:39:20;5.05;;;4.65;;
34573;SDS011;20809;49.594;8.734;2022-07-22T13:42:22;5.53;;;5.03;;
34573;SDS011;20809;49.594;8.734;2022-07-22T13:45:22;5.43;;;5.03;;
34573;SDS011;20809;49.594;8.734;2022-07-22T13:48:23;5.47;;;4.97;;
34573;SDS011;20809;49.594;8.734;2022-07-22T13:51:24;5.65;;;5.18;;
34573;SDS011;20809;49.594;8.734;2022-07-22T13:54:25;4.60;;;4.30;;
34573;SDS011;20809;49.594;8.734;2022-07-22T13:57:26;4.93;;;4.53;;
34573;SDS011;20809;49.594;8.734;2022-07-22T14:00:27;7.05;;;4.80;;
34573;SDS011;20809;49.594;8.734;2022-07-22T14:03:28;5.45;;;4.97;;
34573;SDS011;20809;49.594;8.734;2022-07-22T14:06:29;5.25;;;4.85;;
34573;SDS011;20809;49.594;8.734;2022-07-22T14:09:30;5.93;;;4.40;;
34573;SDS011;20809;49.594;8.734;2022-07-22T14:12:30;7.20;;;4.72;;
34573;SDS011;20809;49.594;8.734;2022-07-22T14:15:31;5.00;;;4.60;;
34573;SDS011;20809;49.594;8.734;2022-07-22T14:18:32;4.93;;;4.43;;
34573;SDS011;20809;49.594;8.734;2022-07-22T14:21:34;6.22;;;4.95;;
34573;SDS011;20809;49.594;8.734;2022-07-22T14:24:36;5.60;;;5.10;;
34573;SDS011;20809;49.594;8.734;2022-07-22T14:27:36;5.40;;;5.00;;
34573;SDS011;20809;49.594;8.734;2022-07-22T14:30:37;5.57;;;5.05;;
34573;SDS011;20809;49.594;8.734;2022-07-22T14:33:38;4.90;;;4.50;;
34573;SDS011;20809;49.594;8.734;2022-07-22T14:36:39;5.57;;;5.18;;
34573;SDS011;20809;49.594;8.734;2022-07-22T14:39:43;5.00;;;4.60;;
34573;SDS011;20809;49.594;8.734;2022-07-22T14:42:44;4.68;;;4.25;;
34573;SDS011;20809;49.594;8.734;2022-07-22T14:45:44;5.63;;;4.97;;
34573;SDS011;20809;49.594;8.734;2022-07-22T14:48:45;5.00;;;4.45;;
34573;SDS011;20809;49.594;8.734;2022-07-22T14:51:48;5.03;;;4.60;;
34573;SDS011;20809;49.594;8.734;2022-07-22T14:54:49;4.32;;;4.03;;
34573;SDS011;20809;49.594;8.734;2022-07-22T14:57:49;4.97;;;4.25;;
34573;SDS011;20809;49.594;8.734;2022-07-22T15:00:50;5.25;;;4.80;;
34573;SDS011;20809;49.594;8.734;2022-07-22T15:03:51;4.93;;;4.55;;
34573;SDS011;20809;49.594;8.734;2022-07-22T15:06:52;5.65;;;4.65;;
34573;SDS011;20809;49.594;8.734;2022-07-22T15:09:53;5.47;;;4.90;;
34573;SDS011;20809;49.594;8.734;2022-07-22T15:12:54;4.72;;;4.43;;
34573;SDS011;20809;49.594;8.734;2022-07-22T15:15:55;5.10;;;4.60;;
34573;SDS011;20809;49.594;8.734;2022-07-22T15:18:56;5.65;;;5.15;;
34573;SDS011;20809;49.594;8.734;2022-07-22T15:21:57;5.30;;;4.70;;
34573;SDS011;20809;49.594;8.734;2022-07-22T15:24:58;5.90;;;5.32;;
34573;SDS011;20809;49.594;8.734;2022-07-22T15:27:59;5.75;;;5.25;;
34573;SDS011;20809;49.594;8.734;2022-07-22T18:19:07;5.57;;;4.70;;
34573;SDS011;20809;49.594;8.734;2022-07-22T18:22:08;4.95;;;4.40;;
34573;SDS011;20809;49.594;8.734;2022-07-22T18:25:09;6.50;;;4.20;;
34573;SDS011;20809;49.594;8.734;2022-07-22T18:28:09;4.50;;;4.20;;
34573;SDS011;20809;49.594;8.734;2022-07-22T18:31:10;5.47;;;4.63;;
34573;SDS011;20809;49.594;8.734;2022-07-22T18:34:11;5.03;;;4.53;;
34573;SDS011;20809;49.594;8.734;2022-07-22T18:37:14;6.03;;;4.57;;
34573;SDS011;20809;49.594;8.734;2022-07-22T18:43:15;5.00;;;4.50;;
34573;SDS011;20809;49.594;8.734;2022-07-22T18:46:17;5.50;;;4.85;;
34573;SDS011;20809;49.594;8.734;2022-07-22T18:52:18;4.87;;;4.47;;
34573;SDS011;20809;49.594;8.734;2022-07-22T18:55:19;4.97;;;4.47;;
34573;SDS011;20809;49.594;8.734;2022-07-22T19:01:21;5.67;;;5.17;;
34573;SDS011;20809;49.594;8.734;2022-07-22T19:07:25;6.50;;;5.55;;
34573;SDS011;20809;49.594;8.734;2022-07-22T19:13:26;5.37;;;4.87;;
34573;SDS011;20809;49.594;8.734;2022-07-22T19:16:27;6.65;;;4.95;;
34573;SDS011;20809;49.594;8.734;2022-07-22T19:19:28;5.00;;;4.60;;
34573;SDS011;20809;49.594;8.734;2022-07-22T19:22:29;5.45;;;4.57;;
34573;SDS011;20809;49.594;8.734;2022-07-22T19:25:29;5.20;;;4.65;;
34573;SDS011;20809;49.594;8.734;2022-07-22T19:28:33;5.47;;;5.03;;
34573;SDS011;20809;49.594;8.734;2022-07-22T19:31:35;5.55;;;4.97;;
34573;SDS011;20809;49.594;8.734;2022-07-22T19:34:36;6.32;;;5.03;;
34573;SDS011;20809;49.594;8.734;2022-07-22T19:37:37;11.20;;;9.23;;
34573;SDS011;20809;49.594;8.734;2022-07-22T19:40:37;5.47;;;4.88;;
34573;SDS011;20809;49.594;8.734;2022-07-22T19:43:38;6.30;;;4.57;;
34573;SDS011;20809;49.594;8.734;2022-07-22T19:49:39;8.13;;;4.87;;
34573;SDS011;20809;49.594;8.734;2022-07-22T19:52:40;5.63;;;5.07;;
34573;SDS011;20809;49.594;8.734;2022-07-22T19:55:41;5.60;;;5.07;;
34573;SDS011;20809;49.594;8.734;2022-07-22T19:58:42;5.28;;;4.78;;
34573;SDS011;20809;49.594;8.734;2022-07-22T20:01:44;7.05;;;6.38;;
34573;SDS011;20809;49.594;8.734;2022-07-22T20:04:45;7.18;;;5.47;;
34573;SDS011;20809;49.594;8.734;2022-07-22T20:07:46;9.90;;;6.53;;
34573;SDS011;20809;49.594;8.734;2022-07-22T20:10:47;6.35;;;5.75;;
34573;SDS011;20809;49.594;8.734;2022-07-22T20:13:48;6.93;;;5.05;;
34573;SDS011;20809;49.594;8.734;2022-07-22T20:16:48;5.50;;;5.00;;
34573;SDS011;20809;49.594;8.734;2022-07-22T20:19:49;6.45;;;4.80;;
34573;SDS011;20809;49.594;8.734;2022-07-22T20:22:50;5.35;;;4.93;;
34573;SDS011;20809;49.594;8.734;2022-07-22T20:25:51;4.53;;;4.03;;
34573;SDS011;20809;49.594;8.734;2022-07-22T20:28:51;8.07;;;5.88;;
34573;SDS011;20809;49.594;8.734;2022-07-22T20:31:52;7.35;;;5.30;;
34573;SDS011;20809;49.594;8.734;2022-07-22T20:34:53;5.72;;;5.22;;
34573;SDS011;20809;49.594;8.734;2022-07-22T20:37:53;6.63;;;5.68;;
34573;SDS011;20809;49.594;8.734;2022-07-22T20:40:55;5.88;;;5.15;;
34573;SDS011;20809;49.594;8.734;2022-07-22T20:43:56;9.38;;;5.22;;
34573;SDS011;20809;49.594;8.734;2022-07-22T20:46:56;5.50;;;5.00;;
34573;SDS011;20809;49.594;8.734;2022-07-22T20:49:57;7.25;;;5.38;;
34573;SDS011;20809;49.594;8.734;2022-07-22T20:52:58;5.95;;;5.45;;
34573;SDS011;20809;49.594;8.734;2022-07-22T20:55:59;5.85;;;5.22;;
34573;SDS011;20809;49.594;8.734;2022-07-22T21:02:01;6.00;;;5.37;;
34573;SDS011;20809;49.594;8.734;2022-07-22T21:05:02;5.97;;;5.18;;
34573;SDS011;20809;49.594;8.734;2022-07-22T21:11:04;8.53;;;5.60;;
34573;SDS011;20809;49.594;8.734;2022-07-22T21:14:05;5.88;;;5.25;;
34573;SDS011;20809;49.594;8.734;2022-07-22T21:17:06;4.95;;;4.55;;
34573;SDS011;20809;49.594;8.734;2022-07-22T21:20:07;6.60;;;5.97;;
34573;SDS011;20809;49.594;8.734;2022-07-22T21:23:08;8.23;;;5.45;;
34573;SDS011;20809;49.594;8.734;2022-07-22T21:26:09;7.72;;;5.90;;
34573;SDS011;20809;49.594;8.734;2022-07-22T21:29:10;5.75;;;5.25;;
34573;SDS011;20809;49.594;8.734;2022-07-22T21:32:12;6.30;;;5.68;;
34573;SDS011;20809;49.594;8.734;2022-07-22T21:35:13;5.70;;;5.07;;
34573;SDS011;20809;49.594;8.734;2022-07-22T21:38:14;5.85;;;5.35;;
34573;SDS011;20809;49.594;8.734;2022-07-22T21:41:14;6.30;;;5.80;;
34573;SDS011;20809;49.594;8.734;2022-07-22T21:44:15;7.13;;;5.90;;
34573;SDS011;20809;49.594;8.734;2022-07-22T21:47:16;6.18;;;5.57;;
34573;SDS011;20809;49.594;8.734;2022-07-22T21:50:17;6.25;;;5.75;;
34573;SDS011;20809;49.594;8.734;2022-07-22T21:53:18;6.32;;;5.75;;
34573;SDS011;20809;49.594;8.734;2022-07-22T21:56:19;6.00;;;5.40;;
34573;SDS011;20809;49.594;8.734;2022-07-22T21:59:38;6.75;;;5.95;;
34573;SDS011;20809;49.594;8.734;2022-07-22T22:02:39;8.85;;;6.63;;
34573;SDS011;20809;49.594;8.734;2022-07-22T22:08:41;6.80;;;6.20;;
34573;SDS011;20809;49.594;8.734;2022-07-22T22:11:42;6.45;;;5.85;;
34573;SDS011;20809;49.594;8.734;2022-07-22T22:14:43;6.32;;;5.65;;
34573;SDS011;20809;49.594;8.734;2022-07-22T22:17:44;5.47;;;4.95;;
34573;SDS011;20809;49.594;8.734;2022-07-22T22:20:44;6.57;;;5.97;;
34573;SDS011;20809;49.594;8.734;2022-07-22T22:23:45;6.72;;;5.82;;
34573;SDS011;20809;49.594;8.734;2022-07-22T22:26:46;5.93;;;5.43;;
34573;SDS011;20809;49.594;8.734;2022-07-22T22:29:47;7.30;;;5.85;;
34573;SDS011;20809;49.594;8.734;2022-07-22T22:35:48;7.27;;;5.70;;
34573;SDS011;20809;49.594;8.734;2022-07-22T22:38:49;6.85;;;5.18;;
34573;SDS011;20809;49.594;8.734;2022-07-22T22:44:52;8.38;;;5.90;;
34573;SDS011;20809;49.594;8.734;2022-07-22T22:47:52;9.38;;;5.55;;
34573;SDS011;20809;49.594;8.734;2022-07-22T22:50:53;7.75;;;6.00;;